createdAt,value
2023-05-25T00:01:44.278Z,99876.22
2023-05-25T00:04:42.362Z,99887.13
2023-05-25T00:07:30.917Z,99886.44
2023-05-25T00:10:14.879Z,99892.34
2023-05-25T00:13:10.379Z,99892.00
2023-05-25T00:15:56.059Z,99883.09
2023-05-25T00:19:00.823Z,99882.22
2023-05-25T00:21:48.812Z,99887.66
2023-05-25T00:24:37.287Z,99895.69
2023-05-25T00:27:21.308Z,99892.81
2023-05-25T00:30:17.002Z,99891.63
2023-05-25T00:32:58.016Z,99890.09
2023-05-25T00:35:45.348Z,99891.47
2023-05-25T00:38:32.426Z,99903.91
2023-05-25T00:41:19.759Z,99903.81
2023-05-25T00:44:10.522Z,99905.19
2023-05-25T00:47:12.064Z,99917.44
2023-05-25T00:50:01.193Z,99916.25
2023-05-25T00:52:49.249Z,99920.44
2023-05-25T00:55:45.734Z,99912.69
2023-05-25T00:58:26.625Z,99917.69
2023-05-25T01:01:12.316Z,99918.59
2023-05-25T01:04:00.305Z,99925.13
2023-05-25T01:06:46.066Z,99927.59
2023-05-25T01:09:27.672Z,99929.72
2023-05-25T01:12:15.156Z,99926.63
2023-05-25T01:15:09.729Z,99925.41
2023-05-25T01:17:54.320Z,99928.03
2023-05-25T01:20:40.482Z,99925.44
2023-05-25T01:23:32.103Z,99925.56
2023-05-25T01:26:19.059Z,99917.09
2023-05-25T01:29:02.482Z,99923.47
2023-05-25T01:31:41.652Z,99929.91
2023-05-25T01:34:29.246Z,99931.97
2023-05-25T01:37:35.279Z,99936.31
2023-05-25T01:40:20.252Z,99933.78
2023-05-25T01:43:01.254Z,99925.19
2023-05-25T01:45:49.530Z,99929.06
2023-05-25T01:48:44.066Z,99931.41
2023-05-25T01:51:41.765Z,99932.41
2023-05-25T01:54:34.457Z,99929.63
2023-05-25T01:57:18.037Z,99927.34
2023-05-25T02:00:08.394Z,99925.47
2023-05-25T02:02:57.338Z,99922.44
2023-05-25T02:05:49.736Z,99916.28
2023-05-25T02:08:34.130Z,99920.06
2023-05-25T02:11:20.688Z,99916.47
2023-05-25T02:14:09.309Z,99921.38
2023-05-25T02:17:00.004Z,99921.06
2023-05-25T02:19:40.300Z,99927.44
2023-05-25T02:22:47.260Z,99924.41
2023-05-25T02:25:47.777Z,99936.72
2023-05-25T02:28:36.198Z,99930.72
2023-05-25T02:31:22.286Z,99937.34
2023-05-25T02:34:04.884Z,99945.06
2023-05-25T02:36:57.943Z,99937.97
2023-05-25T02:39:46.270Z,99943.81
2023-05-25T02:42:41.760Z,99948.53
2023-05-25T02:45:36.995Z,99955.56
2023-05-25T02:48:18.029Z,99955.19
2023-05-25T02:51:21.873Z,99958.19
2023-05-25T02:54:12.743Z,99950.88
2023-05-25T02:57:06.652Z,99961.94
2023-05-25T02:59:54.250Z,99958.22
2023-05-25T03:02:41.180Z,99956.13
2023-05-25T03:05:39.129Z,99950.31
2023-05-25T03:08:23.064Z,99951.50
2023-05-25T03:11:17.561Z,99949.13
2023-05-25T03:14:11.302Z,99950.41
2023-05-25T03:17:04.878Z,99941.72
2023-05-25T03:19:55.327Z,99951.03
2023-05-25T03:22:35.176Z,99957.09
2023-05-25T03:25:16.017Z,99959.63
2023-05-25T03:28:11.373Z,99961.97
2023-05-25T03:30:56.896Z,99957.09
2023-05-25T03:33:40.534Z,99965.31
2023-05-25T03:36:33.707Z,99970.69
2023-05-25T03:39:31.676Z,99960.56
2023-05-25T03:42:17.726Z,99961.53
2023-05-25T03:45:10.253Z,99971.13
2023-05-25T03:47:57.325Z,99975.44
2023-05-25T03:50:44.917Z,99967.88
2023-05-25T03:53:38.882Z,99972.63
2023-05-25T03:56:26.349Z,99978.94
2023-05-25T03:59:09.690Z,99978.53
2023-05-25T04:01:50.712Z,99982.28
2023-05-25T04:04:33.307Z,99987.78
2023-05-25T04:07:16.362Z,99985.44
2023-05-25T04:10:10.742Z,99978.66
2023-05-25T04:12:57.445Z,99987.78
2023-05-25T04:15:46.705Z,99995.91
2023-05-25T04:18:33.738Z,99990.09
2023-05-25T04:21:23.965Z,99991.72
2023-05-25T04:24:19.403Z,100000.31
2023-05-25T04:27:05.752Z,99984.47
2023-05-25T04:30:00.920Z,99991.41
2023-05-25T04:33:04.377Z,99996.69
2023-05-25T04:35:54.555Z,100004.91
2023-05-25T04:38:44.685Z,100012.88
2023-05-25T04:41:36.890Z,100014.63
2023-05-25T04:44:28.601Z,100026.81
2023-05-25T04:47:18.249Z,100016.97
2023-05-25T04:50:10.760Z,100017.69
2023-05-25T04:53:02.286Z,100021.03
2023-05-25T04:55:49.614Z,100015.41
2023-05-25T04:58:32.884Z,100021.13
2023-05-25T05:01:18.313Z,100018.25
2023-05-25T05:04:04.871Z,100016.38
2023-05-25T05:06:50.961Z,100022.09
2023-05-25T05:09:40.608Z,100022.00
2023-05-25T05:12:23.327Z,100015.59
2023-05-25T05:15:05.418Z,100021.03
2023-05-25T05:17:49.680Z,100018.28
2023-05-25T05:20:44.488Z,100023.25
2023-05-25T05:23:34.836Z,100019.97
2023-05-25T05:26:24.451Z,100018.72
2023-05-25T05:29:06.315Z,100018.63
2023-05-25T05:31:56.659Z,100015.84
2023-05-25T05:34:51.245Z,100018.97
2023-05-25T05:37:54.696Z,100023.34
2023-05-25T05:40:42.068Z,100024.06
2023-05-25T05:43:36.792Z,100031.97
2023-05-25T05:46:27.330Z,100036.09
2023-05-25T05:49:19.293Z,100028.81
2023-05-25T05:52:00.323Z,100030.91
2023-05-25T05:54:56.474Z,100037.28
2023-05-25T05:57:40.373Z,100034.94
2023-05-25T06:00:23.672Z,100041.34
2023-05-25T06:03:01.349Z,100038.84
2023-05-25T06:05:53.356Z,100042.63
2023-05-25T06:08:31.745Z,100046.16
2023-05-25T06:11:23.297Z,100053.16
2023-05-25T06:14:15.699Z,100048.19
2023-05-25T06:17:06.483Z,100050.00
2023-05-25T06:19:55.791Z,100050.44
2023-05-25T06:22:36.700Z,100058.06
2023-05-25T06:25:24.817Z,100062.03
2023-05-25T06:28:10.320Z,100048.13
2023-05-25T06:30:56.174Z,100044.63
2023-05-25T06:33:37.273Z,100044.69
2023-05-25T06:36:23.719Z,100053.38
2023-05-25T06:39:22.612Z,100044.41
2023-05-25T06:42:10.230Z,100054.81
2023-05-25T06:45:08.367Z,100054.72
2023-05-25T06:47:52.296Z,100049.88
2023-05-25T06:50:33.956Z,100044.94
2023-05-25T06:53:18.385Z,100047.00
2023-05-25T06:55:59.869Z,100043.59
2023-05-25T06:58:41.111Z,100047.69
2023-05-25T07:01:20.321Z,100046.97
2023-05-25T07:03:58.654Z,100055.78
2023-05-25T07:06:47.188Z,100052.25
2023-05-25T07:12:26.972Z,100052.41
2023-05-25T07:15:05.117Z,100053.03
2023-05-25T07:17:58.281Z,100057.03
2023-05-25T07:20:43.491Z,100060.94
2023-05-25T07:23:29.183Z,100064.66
2023-05-25T07:26:14.568Z,100067.50
2023-05-25T07:29:06.576Z,100061.28
2023-05-25T07:32:06.094Z,100062.56
2023-05-25T07:34:41.618Z,100061.09
2023-05-25T07:37:26.157Z,100056.69
2023-05-25T07:40:10.227Z,100054.41
2023-05-25T07:42:54.227Z,100049.25
2023-05-25T07:45:36.671Z,100062.88
2023-05-25T07:48:24.298Z,100062.63
2023-05-25T07:51:05.379Z,100058.41
2023-05-25T07:53:46.423Z,100056.44
2023-05-25T07:56:31.812Z,100058.75
2023-05-25T07:59:20.056Z,100049.91
2023-05-25T08:02:04.090Z,100053.78
2023-05-25T08:04:53.134Z,100049.13
2023-05-25T08:07:37.005Z,100061.03
2023-05-25T08:10:23.692Z,100060.50
2023-05-25T08:13:05.517Z,100056.47
2023-05-25T08:15:56.230Z,100054.34
2023-05-25T08:18:37.081Z,100056.09
2023-05-25T08:21:24.067Z,100057.00
2023-05-25T08:24:05.230Z,100058.22
2023-05-25T08:26:57.106Z,100059.09
2023-05-25T08:29:42.476Z,100055.88
2023-05-25T08:32:55.281Z,100054.06
2023-05-25T08:35:44.607Z,100063.81
2023-05-25T08:38:31.070Z,100065.06
2023-05-25T08:41:30.652Z,100063.53
2023-05-25T08:44:14.612Z,100062.00
2023-05-25T08:46:59.463Z,100065.56
2023-05-25T08:49:56.267Z,100065.53
2023-05-25T08:52:51.822Z,100063.47
2023-05-25T08:55:42.388Z,100061.97
2023-05-25T08:58:37.414Z,100069.63
2023-05-25T09:01:29.824Z,100069.47
2023-05-25T09:04:08.348Z,100066.78
2023-05-25T09:07:10.448Z,100062.22
2023-05-25T09:10:07.340Z,100063.56
2023-05-25T09:12:52.086Z,100067.91
2023-05-25T09:15:46.845Z,100055.88
2023-05-25T09:18:30.801Z,100057.34
2023-05-25T09:21:23.926Z,100067.34
2023-05-25T09:24:03.298Z,100063.91
2023-05-25T09:26:49.861Z,100060.59
2023-05-25T09:29:44.057Z,100063.34
2023-05-25T09:32:40.951Z,100067.91
2023-05-25T09:35:19.729Z,100063.81
2023-05-25T09:38:05.140Z,100065.56
2023-05-25T09:40:53.070Z,100073.16
2023-05-25T09:44:02.137Z,100068.91
2023-05-25T09:47:07.187Z,100064.44
2023-05-25T09:49:43.280Z,100075.84
2023-05-25T09:52:31.798Z,100076.53
2023-05-25T09:55:09.604Z,100076.59
2023-05-25T09:58:06.067Z,100082.53
2023-05-25T10:00:47.804Z,100083.66
2023-05-25T10:03:28.786Z,100072.78
2023-05-25T10:06:10.966Z,100065.88
2023-05-25T10:09:01.406Z,100066.91
2023-05-25T10:11:42.446Z,100075.53
2023-05-25T10:20:56.329Z,100061.16
2023-05-25T10:23:42.191Z,100061.84
2023-05-25T10:26:23.021Z,100054.50
2023-05-25T10:29:10.292Z,100063.91
2023-05-25T10:31:51.885Z,100057.69
2023-05-25T10:34:43.277Z,100050.34
2023-05-25T10:37:23.664Z,100057.28
2023-05-25T10:40:00.516Z,100050.72
2023-05-25T10:42:51.629Z,100050.81
2023-05-25T10:45:39.571Z,100054.09
2023-05-25T10:48:26.081Z,100050.41
2023-05-25T10:51:15.116Z,100051.44
2023-05-25T10:54:07.611Z,100043.03
2023-05-25T10:57:28.277Z,100049.44
2023-05-25T11:00:09.309Z,100038.44
2023-05-25T11:03:08.014Z,100044.59
2023-05-25T11:05:56.516Z,100045.06
2023-05-25T11:09:03.640Z,100040.97
2023-05-25T11:11:53.280Z,100036.00
2023-05-25T11:14:47.309Z,100039.31
2023-05-25T11:17:33.304Z,100032.31
2023-05-25T11:20:25.304Z,100027.56
2023-05-25T11:23:34.858Z,100023.22
2023-05-25T11:26:24.779Z,100029.66
2023-05-25T11:29:02.184Z,100021.19
2023-05-25T11:34:49.021Z,100021.34
2023-05-25T11:37:39.152Z,100030.50
2023-05-25T11:40:33.351Z,100014.88
2023-05-25T11:43:18.400Z,100010.66
2023-05-25T11:46:15.267Z,100013.91
2023-05-25T11:49:02.856Z,100011.84
2023-05-25T11:51:44.506Z,99999.75
2023-05-25T11:54:33.475Z,99994.38
2023-05-25T11:57:23.754Z,99983.34
2023-05-25T12:00:11.605Z,99989.16
2023-05-25T12:02:51.139Z,99992.38
2023-05-25T12:05:29.506Z,99985.78
2023-05-25T12:08:13.294Z,99987.28
2023-05-25T12:11:08.704Z,99980.28
2023-05-25T12:13:48.340Z,99978.22
2023-05-25T12:16:39.150Z,99977.09
2023-05-25T12:19:27.417Z,99972.56
2023-05-25T12:22:23.492Z,99977.81
2023-05-25T12:25:02.038Z,99980.41
2023-05-25T12:27:40.923Z,99975.78
2023-05-25T12:30:16.901Z,99973.44
2023-05-25T12:33:33.717Z,99974.53
2023-05-25T12:36:15.546Z,99973.59
2023-05-25T12:39:12.631Z,99969.38
2023-05-25T12:41:55.002Z,99982.41
2023-05-25T12:44:47.884Z,99976.91
2023-05-25T12:47:29.357Z,99977.47
2023-05-25T12:50:20.022Z,99969.38
2023-05-25T12:53:06.295Z,99960.81
2023-05-25T12:56:25.040Z,99962.16
2023-05-25T12:59:36.617Z,99967.19
2023-05-25T13:02:15.846Z,99965.59
2023-05-25T13:04:51.533Z,99948.31
2023-05-25T13:07:39.326Z,99940.53
2023-05-25T13:10:29.998Z,99942.13
2023-05-25T13:13:17.514Z,99934.63
2023-05-25T13:15:56.530Z,99941.50
2023-05-25T13:18:31.671Z,99932.69
2023-05-25T13:21:11.308Z,99927.28
2023-05-25T13:23:57.622Z,99931.84
2023-05-25T13:26:38.834Z,99928.84
2023-05-25T13:29:24.066Z,99921.78
2023-05-25T13:32:06.439Z,99920.88
2023-05-25T13:34:53.081Z,99916.97
2023-05-25T13:37:47.614Z,99915.81
2023-05-25T13:43:29.940Z,99910.16
2023-05-25T13:46:21.866Z,99903.53
2023-05-25T13:49:17.722Z,99905.44
2023-05-25T13:52:02.346Z,99903.34
2023-05-25T13:58:24.358Z,99896.09
2023-05-25T14:01:21.025Z,99893.69
2023-05-25T14:04:13.284Z,99891.94
2023-05-25T14:07:05.049Z,99890.41
2023-05-25T14:09:50.391Z,99886.78
2023-05-25T14:12:34.615Z,99896.13
2023-05-25T14:15:39.308Z,99889.50
2023-05-25T14:21:16.476Z,99888.25
2023-05-25T14:24:42.783Z,99876.56
2023-05-25T14:27:33.218Z,99875.84
2023-05-25T14:30:40.222Z,99882.38
2023-05-25T14:33:33.058Z,99879.53
2023-05-25T14:36:28.591Z,99874.56
2023-05-25T14:39:25.164Z,99881.59
2023-05-25T14:45:16.488Z,99862.63
2023-05-25T14:48:15.820Z,99873.19
2023-05-25T14:51:13.915Z,99861.63
2023-05-25T14:54:10.770Z,99861.66
2023-05-25T14:56:56.266Z,99869.28
2023-05-25T14:59:44.722Z,99863.31
2023-05-25T15:02:28.855Z,99858.19
2023-05-25T15:05:11.278Z,99860.84
2023-05-25T15:07:48.254Z,99865.34
2023-05-25T15:10:31.253Z,99868.97
2023-05-25T15:13:18.802Z,99872.31
2023-05-25T15:16:08.250Z,99864.19
2023-05-25T15:18:55.705Z,99862.28
2023-05-25T15:21:43.822Z,99851.69
2023-05-25T15:24:30.129Z,99847.88
2023-05-25T15:27:14.285Z,99847.72
2023-05-25T15:30:04.365Z,99851.69
2023-05-25T15:32:51.523Z,99846.97
2023-05-25T15:35:35.027Z,99846.84
2023-05-25T15:38:19.318Z,99835.16
2023-05-25T15:41:00.239Z,99841.97
2023-05-25T15:43:44.256Z,99845.06
2023-05-25T15:46:28.312Z,99839.50
2023-05-25T15:49:11.701Z,99842.47
2023-05-25T15:52:07.108Z,99854.84
2023-05-25T15:54:47.304Z,99855.22
2023-05-25T15:57:32.849Z,99851.59
2023-05-25T16:00:12.275Z,99863.63
2023-05-25T16:02:55.324Z,99857.00
2023-05-25T16:05:33.823Z,99846.09
2023-05-25T16:08:23.871Z,99844.00
2023-05-25T16:11:11.454Z,99845.25
2023-05-25T16:13:52.266Z,99847.06
2023-05-25T16:16:39.626Z,99847.59
2023-05-25T16:19:33.563Z,99842.56
2023-05-25T16:22:16.002Z,99850.34
2023-05-25T16:25:06.143Z,99844.03
2023-05-25T16:27:56.814Z,99842.03
2023-05-25T16:30:56.468Z,99840.44
2023-05-25T16:33:46.499Z,99848.09
2023-05-25T16:36:38.704Z,99858.25
2023-05-25T16:39:35.909Z,99868.69
2023-05-25T16:42:17.000Z,99863.84
2023-05-25T16:44:52.672Z,99862.81
2023-05-25T16:48:00.629Z,99857.44
2023-05-25T16:50:39.639Z,99854.97
2023-05-25T16:53:32.653Z,99849.53
2023-05-25T16:56:11.034Z,99860.50
2023-05-25T16:58:55.796Z,99852.81
2023-05-25T17:01:43.711Z,99847.78
2023-05-25T17:04:24.550Z,99849.88
2023-05-25T17:07:16.563Z,99856.25
2023-05-25T17:10:00.301Z,99864.91
2023-05-25T17:12:38.836Z,99859.00
2023-05-25T17:15:26.313Z,99854.44
2023-05-25T17:18:10.408Z,99850.69
2023-05-25T17:20:55.916Z,99847.50
2023-05-25T17:23:43.463Z,99858.44
2023-05-25T17:26:33.493Z,99866.59
2023-05-25T17:29:15.468Z,99854.44
2023-05-25T17:31:54.292Z,99854.50
2023-05-25T17:34:32.513Z,99845.22
2023-05-25T17:37:12.388Z,99844.13
2023-05-25T17:39:54.422Z,99845.38
2023-05-25T17:42:35.566Z,99848.50
2023-05-25T17:45:15.900Z,99840.69
2023-05-25T17:48:08.129Z,99848.81
2023-05-25T17:50:44.570Z,99857.72
2023-05-25T17:53:24.892Z,99856.25
2023-05-25T17:56:09.720Z,99863.72
2023-05-25T17:58:50.776Z,99858.22
2023-05-25T18:01:46.619Z,99863.56
2023-05-25T18:04:25.533Z,99870.03
2023-05-25T18:07:04.368Z,99866.75
2023-05-25T18:09:55.956Z,99871.69
2023-05-25T18:12:40.370Z,99868.41
2023-05-25T18:15:26.462Z,99864.47
2023-05-25T18:18:14.845Z,99875.69
2023-05-25T18:20:58.749Z,99871.97
2023-05-25T18:23:40.581Z,99878.19
2023-05-25T18:26:28.349Z,99871.00
2023-05-25T18:29:12.870Z,99874.75
2023-05-25T18:31:53.796Z,99877.53
2023-05-25T18:34:47.287Z,99881.84
2023-05-25T18:37:31.332Z,99884.84
2023-05-25T18:40:20.107Z,99889.66
2023-05-25T18:43:11.782Z,99880.38
2023-05-25T18:45:56.609Z,99900.94
2023-05-25T18:48:46.587Z,99908.63
2023-05-25T18:51:37.200Z,99902.84
2023-05-25T18:54:25.631Z,99908.84
2023-05-25T18:57:11.390Z,99915.22
2023-05-25T18:59:55.361Z,99912.91
2023-05-25T19:02:33.457Z,99920.38
2023-05-25T19:05:19.214Z,99925.00
2023-05-25T19:08:02.792Z,99923.16
2023-05-25T19:10:44.554Z,99920.16
2023-05-25T19:13:31.297Z,99924.88
2023-05-25T19:16:34.154Z,99923.09
2023-05-25T19:19:15.111Z,99928.59
2023-05-25T19:22:09.454Z,99927.72
2023-05-25T19:25:01.282Z,99931.91
2023-05-25T19:27:53.317Z,99929.44
2023-05-25T19:30:41.356Z,99934.66
2023-05-25T19:33:24.596Z,99928.03
2023-05-25T19:36:05.653Z,99939.75
2023-05-25T19:38:52.936Z,99943.41
2023-05-25T19:41:31.488Z,99936.31
2023-05-25T19:44:12.485Z,99942.69
2023-05-25T19:46:55.984Z,99935.94
2023-05-25T19:49:34.593Z,99943.59
2023-05-25T19:52:27.312Z,99941.66
2023-05-25T19:55:24.633Z,99944.81
2023-05-25T19:58:12.194Z,99954.66
2023-05-25T20:00:58.858Z,99945.78
2023-05-25T20:03:48.185Z,99949.47
2023-05-25T20:06:38.744Z,99955.16
2023-05-25T20:09:23.402Z,99959.16
2023-05-25T20:12:11.707Z,99960.81
2023-05-25T20:14:54.967Z,99966.94
2023-05-25T20:17:37.588Z,99958.44
2023-05-25T20:20:18.768Z,99963.84
2023-05-25T20:22:59.281Z,99956.06
2023-05-25T20:25:48.051Z,99967.00
2023-05-25T20:28:37.983Z,99970.34
2023-05-25T20:31:21.683Z,99966.00
2023-05-25T20:34:09.333Z,99973.06
2023-05-25T20:36:53.733Z,99972.13
2023-05-25T20:39:45.771Z,99971.78
2023-05-25T20:42:29.554Z,99967.81
2023-05-25T20:45:19.099Z,99973.00
2023-05-25T20:48:10.178Z,99976.03
2023-05-25T20:50:57.728Z,99964.41
2023-05-25T20:53:51.860Z,99965.56
2023-05-25T20:56:38.820Z,99965.72
2023-05-25T20:59:33.725Z,99971.38
2023-05-25T21:02:10.363Z,99970.88
2023-05-25T21:04:59.775Z,99968.09
2023-05-25T21:07:56.686Z,99967.66
2023-05-25T21:10:38.308Z,99968.31
2023-05-25T21:13:27.218Z,99971.44
2023-05-25T21:16:12.967Z,99963.97
2023-05-25T21:19:04.367Z,99967.56
2023-05-25T21:22:04.858Z,99969.72
2023-05-25T21:24:45.965Z,99971.31
2023-05-25T21:27:30.712Z,99977.31
2023-05-25T21:30:09.445Z,99979.44
2023-05-25T21:32:45.076Z,99982.53
2023-05-25T21:35:29.120Z,99982.06
2023-05-25T21:38:09.677Z,99975.28
2023-05-25T21:41:08.448Z,99982.63
2023-05-25T21:44:06.709Z,99980.72
2023-05-25T21:46:54.238Z,99982.41
2023-05-25T21:49:38.130Z,99981.53
2023-05-25T21:52:37.526Z,99973.50
2023-05-25T21:55:30.341Z,99976.09
2023-05-25T21:58:08.920Z,99984.69
2023-05-25T22:00:53.169Z,99980.16
2023-05-25T22:03:40.690Z,99981.69
2023-05-25T22:06:30.162Z,99973.94
2023-05-25T22:09:08.125Z,99977.91
2023-05-25T22:11:55.481Z,99979.44
2023-05-25T22:14:41.331Z,99985.34
2023-05-25T22:17:20.549Z,99981.63
2023-05-25T22:20:08.613Z,99983.03
2023-05-25T22:22:46.506Z,99987.19
2023-05-25T22:25:38.021Z,99991.84
2023-05-25T22:28:17.595Z,99992.88
2023-05-25T22:31:09.991Z,99981.19
2023-05-25T22:33:51.270Z,99980.00
2023-05-25T22:36:37.327Z,99976.41
2023-05-25T22:39:25.407Z,99981.69
2023-05-25T22:42:06.520Z,99981.44
2023-05-25T22:44:49.560Z,99979.22
2023-05-25T22:47:32.717Z,99988.56
2023-05-25T22:50:25.708Z,99978.97
2023-05-25T22:53:01.763Z,99978.78
2023-05-25T22:55:44.553Z,99977.66
2023-05-25T22:58:29.721Z,99986.63
2023-05-25T23:01:09.363Z,99974.09
2023-05-25T23:03:48.610Z,99979.69
2023-05-25T23:06:30.617Z,99975.50
2023-05-25T23:09:12.280Z,99979.16
2023-05-25T23:11:53.263Z,99978.31
2023-05-25T23:14:39.688Z,99991.03
2023-05-25T23:17:34.805Z,99973.50
2023-05-25T23:20:12.935Z,99970.34
2023-05-25T23:23:05.331Z,99970.72
2023-05-25T23:25:47.318Z,99976.88
2023-05-25T23:28:27.881Z,99968.72
2023-05-25T23:31:06.586Z,99973.50
2023-05-25T23:34:02.024Z,99980.88
2023-05-25T23:36:49.708Z,99971.34
2023-05-25T23:39:36.071Z,99978.38
2023-05-25T23:42:18.944Z,99973.63
2023-05-25T23:45:00.313Z,99976.72
2023-05-25T23:47:43.329Z,99979.56
2023-05-25T23:50:21.459Z,99977.31
2023-05-25T23:53:06.156Z,99982.75
2023-05-25T23:55:52.879Z,99982.06
2023-05-25T23:58:34.483Z,99973.69
